Home   Weather   Chile   Villarrica   Past weeks
Flag for Chile

Past Weather in Villarrica, Chile — Yesterday and Last 2 Weeks

Currently: 32 °F. Fog. (Weather station: Polloico, Chile). See more current weather

Past Weather in Villarrica — Graph

°F

Villarrica Temperature Yesterday

Maximum temperature yesterday: 48 °F (at 5:00 pm)
Minimum temperature yesterday: 28 °F (at 3:03 am)
Average temperature yesterday: 34 °F

High & Low Weather Summary for the Past Weeks

 TemperatureHumidityPressure
High54 °F (Jul 19, 3:00 pm)100% (Jul 18, 2:00 am)30.60 "Hg (Jul 18, 2:00 am)
Low27 °F (Jul 18, 6:22 am)58% (Jul 26, 2:00 pm)29.92 "Hg (Jul 24, 7:00 am)
Average41 °F94%30.21 "Hg
* Reported Jul 18 2:00 am — Aug 2 2:00 am, Villarrica. Weather by CustomWeather, © 2021

Note: Actual official high and low records may vary slightly from our data, if they occured in-between our weather recording intervals... More about our weather records

Villarrica Weather History for the Previous 24 Hours

Scroll right to see more
 ConditionsComfort  
Time TempWeatherWind HumidityBarometerVisibility
2:00 am
Mon, Aug 2
32 °FFog.2 mph100%30.27 "Hg0 mi
1:00 am32 °FFog.1 mph100%30.27 "Hg0 mi
12:00 am34 °FFog.2 mph100%30.27 "Hg0 mi
11:00 pm
Sun, Aug 1
32 °FFog.No wind100%30.30 "Hg0 mi
10:00 pm32 °FFog.No wind100%30.27 "Hg0 mi
9:04 pm36 °FFog.1 mph93%30.30 "Hg1 mi
7:32 pm37 °FFog.No wind100%30.30 "Hg1 mi
7:21 pm39 °FFog.No wind100%30.30 "Hg1 mi
7:00 pm39 °FFog.No wind100%30.27 "Hg10 mi
6:00 pm46 °FClear.No wind87%30.27 "Hg10 mi
5:00 pm48 °FSunny.2 mph82%30.27 "Hg10 mi
4:00 pm45 °FSunny.No wind93%30.27 "Hg10 mi
3:30 pm43 °FScattered clouds.1 mph100%30.27 "HgN/A
3:00 pm41 °FSnow. Partly sunny.2 mph100%30.30 "HgN/A
2:00 pm39 °FFog.2 mph100%30.30 "Hg1 mi
1:30 pm37 °FFog.2 mph100%30.30 "Hg1 mi
1:00 pm37 °FFog.2 mph100%30.33 "Hg1 mi
12:00 pm34 °FFog.2 mph100%30.36 "Hg0 mi
11:00 am32 °FFog.No wind100%30.36 "Hg0 mi
10:00 am30 °FFog.No wind100%30.36 "Hg0 mi
9:00 am30 °FFog.No wind100%30.36 "Hg0 mi
8:07 am30 °FFog.No wind93%30.36 "Hg0 mi
8:00 am30 °FFog.No wind100%30.36 "Hg0 mi
7:00 am30 °FFog.No wind93%30.36 "Hg0 mi
6:28 am28 °FFog.No wind100%30.33 "Hg1 mi
6:23 am28 °FFog.No wind100%30.33 "Hg1 mi
6:03 am28 °FIce fog.No wind100%30.33 "Hg1 mi
5:24 am28 °FFog.No wind100%30.36 "Hg1 mi
5:00 am28 °FFog.No wind100%30.36 "Hg0 mi
4:00 am28 °FFog.No wind100%30.36 "Hg0 mi
3:03 am28 °FIce fog.No wind100%30.36 "Hg0 mi
Weather by CustomWeather, © 2021

See weather overview